createdAt,value
2023-08-12T00:01:07.610Z,100883.97
2023-08-12T00:03:35.662Z,100880.25
2023-08-12T00:06:06.404Z,100882.84
2023-08-12T00:08:34.550Z,100881.22
2023-08-12T00:11:02.557Z,100880.25
2023-08-12T00:13:30.671Z,100872.81
2023-08-12T00:15:58.652Z,100873.06
2023-08-12T00:18:28.049Z,100871.72
2023-08-12T00:20:56.256Z,100869.84
2023-08-12T00:23:24.199Z,100868.97
2023-08-12T00:25:52.132Z,100867.69
2023-08-12T00:28:20.093Z,100865.22
2023-08-12T00:30:50.379Z,100871.50
2023-08-12T00:33:19.541Z,100863.03
2023-08-12T00:35:49.129Z,100867.44
2023-08-12T00:38:17.348Z,100868.31
2023-08-12T00:40:45.358Z,100861.94
2023-08-12T00:43:13.686Z,100867.50
2023-08-12T00:45:42.717Z,100863.03
2023-08-12T00:48:14.456Z,100858.63
2023-08-12T00:50:43.731Z,100857.84
2023-08-12T00:53:14.434Z,100861.63
2023-08-12T00:55:42.600Z,100857.16
2023-08-12T00:58:10.788Z,100854.56
2023-08-12T01:00:39.486Z,100855.44
2023-08-12T01:03:08.083Z,100853.78
2023-08-12T01:05:38.482Z,100860.28
2023-08-12T01:08:07.962Z,100854.09
2023-08-12T01:10:39.051Z,100859.75
2023-08-12T01:13:18.715Z,100859.66
2023-08-12T01:15:47.596Z,100856.06
2023-08-12T01:18:16.585Z,100858.72
2023-08-12T01:20:45.167Z,100863.38
2023-08-12T01:23:15.589Z,100876.28
2023-08-12T01:25:44.654Z,100873.72
2023-08-12T01:28:12.721Z,100882.66
2023-08-12T01:30:50.293Z,100887.91
2023-08-12T01:33:37.144Z,100887.91
2023-08-12T01:36:11.647Z,100889.72
2023-08-12T01:38:43.033Z,100882.50
2023-08-12T01:41:13.560Z,100885.50
2023-08-12T01:43:42.683Z,100887.44
2023-08-12T01:46:11.973Z,100891.00
2023-08-12T01:48:39.972Z,100877.16
2023-08-12T01:51:09.211Z,100877.25
2023-08-12T01:53:37.250Z,100875.63
2023-08-12T01:56:06.666Z,100882.31
2023-08-12T01:58:34.661Z,100881.41
2023-08-12T02:01:02.737Z,100883.34
2023-08-12T02:03:30.801Z,100874.38
2023-08-12T02:05:58.908Z,100873.22
2023-08-12T02:08:26.891Z,100876.81
2023-08-12T02:10:54.873Z,100872.28
2023-08-12T02:13:25.537Z,100868.66
2023-08-12T02:15:53.754Z,100867.72
2023-08-12T02:18:24.424Z,100867.88
2023-08-12T02:20:52.522Z,100873.50
2023-08-12T02:23:20.769Z,100864.75
2023-08-12T02:25:49.508Z,100866.66
2023-08-12T02:28:17.453Z,100868.84
2023-08-12T02:30:46.813Z,100868.78
2023-08-12T02:33:14.796Z,100866.03
2023-08-12T02:35:43.896Z,100862.63
2023-08-12T02:38:12.115Z,100862.00
2023-08-12T02:40:40.113Z,100860.25
2023-08-12T02:43:08.030Z,100857.75
2023-08-12T02:45:36.009Z,100862.31
2023-08-12T02:48:06.221Z,100860.50
2023-08-12T02:50:34.239Z,100867.63
2023-08-12T02:53:02.272Z,100866.81
2023-08-12T02:55:30.287Z,100857.84
2023-08-12T02:57:58.290Z,100857.25
2023-08-12T03:00:26.306Z,100856.53
2023-08-12T03:02:54.423Z,100859.41
2023-08-12T03:05:24.095Z,100861.22
2023-08-12T03:07:52.711Z,100858.06
2023-08-12T03:10:20.998Z,100862.09
2023-08-12T03:12:48.997Z,100864.63
2023-08-12T03:15:17.711Z,100857.22
2023-08-12T03:17:45.809Z,100864.69
2023-08-12T03:20:13.883Z,100872.91
2023-08-12T03:22:44.106Z,100864.91
2023-08-12T03:25:12.091Z,100866.72
2023-08-12T03:27:41.206Z,100870.25
2023-08-12T03:30:12.960Z,100862.75
2023-08-12T03:32:43.254Z,100864.63
2023-08-12T03:35:12.054Z,100869.34
2023-08-12T03:37:39.976Z,100879.16
2023-08-12T03:40:11.124Z,100878.13
2023-08-12T03:42:40.785Z,100873.63
2023-08-12T03:45:09.826Z,100876.22
2023-08-12T03:47:38.007Z,100886.81
2023-08-12T03:50:07.442Z,100885.25
2023-08-12T03:52:35.404Z,100887.94
2023-08-12T03:55:03.602Z,100877.41
2023-08-12T03:57:33.678Z,100884.63
2023-08-12T04:00:02.215Z,100889.88
2023-08-12T04:02:30.692Z,100879.81
2023-08-12T04:04:58.682Z,100893.16
2023-08-12T04:07:28.049Z,100884.47
2023-08-12T04:09:55.968Z,100897.72
2023-08-12T04:12:23.989Z,100894.50
2023-08-12T04:14:53.363Z,100892.47
2023-08-12T04:17:21.409Z,100897.16
2023-08-12T04:19:50.467Z,100900.81
2023-08-12T04:22:18.865Z,100898.72
2023-08-12T04:24:46.834Z,100900.47
2023-08-12T04:27:15.262Z,100897.72
2023-08-12T04:29:43.491Z,100908.19
2023-08-12T04:32:12.865Z,100904.66
2023-08-12T04:34:41.634Z,100905.44
2023-08-12T04:37:09.914Z,100911.50
2023-08-12T04:39:38.137Z,100912.03
2023-08-12T04:42:06.952Z,100914.47
2023-08-12T04:44:34.996Z,100913.25
2023-08-12T04:47:04.105Z,100916.63
2023-08-12T04:49:35.765Z,100917.25
2023-08-12T04:52:03.738Z,100911.66
2023-08-12T04:54:31.997Z,100914.81
2023-08-12T04:57:00.436Z,100912.72
2023-08-12T04:59:28.430Z,100911.63
2023-08-12T05:02:04.878Z,100914.03
2023-08-12T05:04:36.748Z,100910.19
2023-08-12T05:07:04.777Z,100906.38
2023-08-12T05:09:33.105Z,100917.63
2023-08-12T05:12:01.160Z,100915.66
2023-08-12T05:14:29.215Z,100915.44
2023-08-12T05:16:57.154Z,100901.94
2023-08-12T05:19:25.133Z,100915.13
2023-08-12T05:21:54.550Z,100909.66
2023-08-12T05:24:22.653Z,100912.00
2023-08-12T05:27:03.042Z,100917.91
2023-08-12T05:29:31.247Z,100913.19
2023-08-12T05:31:59.534Z,100915.63
2023-08-12T05:34:28.170Z,100913.75
2023-08-12T05:36:57.976Z,100916.19
2023-08-12T05:39:25.935Z,100921.28
2023-08-12T05:41:54.099Z,100913.84
2023-08-12T05:44:22.121Z,100918.78
2023-08-12T05:46:50.119Z,100912.19
2023-08-12T05:49:18.072Z,100910.13
2023-08-12T05:51:45.979Z,100909.03
2023-08-12T05:54:15.300Z,100910.50
2023-08-12T05:56:43.280Z,100915.50
2023-08-12T05:59:11.511Z,100907.31
2023-08-12T06:01:39.474Z,100911.44
2023-08-12T06:04:07.869Z,100910.34
2023-08-12T06:06:35.960Z,100903.91
2023-08-12T06:09:04.867Z,100908.97
2023-08-12T06:11:34.391Z,100906.94
2023-08-12T06:14:02.400Z,100906.69
2023-08-12T06:16:30.317Z,100902.78
2023-08-12T06:18:58.276Z,100908.78
2023-08-12T06:21:26.296Z,100915.66
2023-08-12T06:23:54.287Z,100911.00
2023-08-12T06:26:22.193Z,100909.91
2023-08-12T06:28:51.575Z,100914.13
2023-08-12T06:31:19.638Z,100909.47
2023-08-12T06:33:47.626Z,100914.56
2023-08-12T06:36:15.557Z,100913.44
2023-08-12T06:38:43.491Z,100906.91
2023-08-12T06:41:11.428Z,100903.09
2023-08-12T06:43:39.455Z,100905.50
2023-08-12T06:46:08.806Z,100902.59
2023-08-12T06:48:36.795Z,100897.81
2023-08-12T06:51:11.575Z,100900.00
2023-08-12T06:53:40.128Z,100896.09
2023-08-12T06:56:08.761Z,100900.25
2023-08-12T06:58:36.685Z,100896.44
2023-08-12T07:01:04.711Z,100901.53
2023-08-12T07:03:34.869Z,100902.03
2023-08-12T07:06:03.290Z,100898.13
2023-08-12T07:08:31.207Z,100902.28
2023-08-12T07:10:59.242Z,100905.44
2023-08-12T07:13:27.210Z,100903.28
2023-08-12T07:15:55.210Z,100898.28
2023-08-12T07:18:24.097Z,100901.28
2023-08-12T07:20:53.576Z,100899.88
2023-08-12T07:23:21.512Z,100891.44
2023-08-12T07:25:49.726Z,100898.09
2023-08-12T07:28:17.916Z,100895.03
2023-08-12T07:30:46.238Z,100899.75
2023-08-12T07:33:17.180Z,100896.38
2023-08-12T07:35:45.183Z,100896.88
2023-08-12T07:38:14.754Z,100899.91
2023-08-12T07:40:42.832Z,100895.81
2023-08-12T07:43:10.824Z,100897.06
2023-08-12T07:45:38.827Z,100896.34
2023-08-12T07:48:07.411Z,100900.25
2023-08-12T07:50:35.515Z,100895.50
2023-08-12T07:53:03.540Z,100894.34
2023-08-12T07:55:32.900Z,100892.88
2023-08-12T07:58:00.848Z,100888.91
2023-08-12T08:00:28.829Z,100887.75
2023-08-12T08:02:56.861Z,100891.09
2023-08-12T08:05:24.933Z,100885.22
2023-08-12T08:07:52.966Z,100886.53
2023-08-12T08:10:20.957Z,100886.00
2023-08-12T08:12:50.286Z,100877.75
2023-08-12T08:15:18.249Z,100879.28
2023-08-12T08:17:46.353Z,100882.59
2023-08-12T08:20:14.690Z,100877.59
2023-08-12T08:22:42.661Z,100880.91
2023-08-12T08:25:10.675Z,100883.00
2023-08-12T08:27:41.069Z,100884.50
2023-08-12T08:30:13.256Z,100888.50
2023-08-12T08:32:41.290Z,100881.19
2023-08-12T08:35:09.639Z,100881.09
2023-08-12T08:37:37.648Z,100879.78
2023-08-12T08:40:06.225Z,100883.88
2023-08-12T08:42:34.762Z,100886.91
2023-08-12T08:45:04.275Z,100883.91
2023-08-12T08:47:34.063Z,100876.34
2023-08-12T08:50:02.711Z,100865.94
2023-08-12T08:52:31.080Z,100879.78
2023-08-12T08:55:03.251Z,100874.84
2023-08-12T08:57:39.929Z,100885.91
2023-08-12T09:00:17.994Z,100886.25
2023-08-12T09:02:49.677Z,100880.63
2023-08-12T09:05:18.416Z,100867.91
2023-08-12T09:07:46.801Z,100877.81
2023-08-12T09:10:15.721Z,100876.50
2023-08-12T09:12:45.556Z,100875.09
2023-08-12T09:15:13.822Z,100870.53
2023-08-12T09:17:41.935Z,100873.41
2023-08-12T09:20:13.756Z,100869.56
2023-08-12T09:22:42.365Z,100873.78
2023-08-12T09:25:11.705Z,100860.19
2023-08-12T09:27:39.979Z,100867.06
2023-08-12T09:30:10.021Z,100866.94
2023-08-12T09:32:39.911Z,100858.78
2023-08-12T09:35:17.521Z,100867.25
2023-08-12T09:37:47.047Z,100863.28
2023-08-12T09:40:16.408Z,100863.28
2023-08-12T09:42:47.669Z,100852.69
2023-08-12T09:45:16.452Z,100851.41
2023-08-12T09:47:44.523Z,100857.53
2023-08-12T09:50:12.651Z,100849.56
2023-08-12T09:52:41.623Z,100849.69
2023-08-12T09:55:13.905Z,100846.03
2023-08-12T09:57:45.422Z,100847.41
2023-08-12T10:00:17.978Z,100837.94
2023-08-12T10:02:46.888Z,100839.66
2023-08-12T10:05:20.860Z,100832.59
2023-08-12T10:07:49.676Z,100830.63
2023-08-12T10:10:19.557Z,100835.03
2023-08-12T10:12:50.310Z,100826.81
2023-08-12T10:15:18.613Z,100824.84
2023-08-12T10:17:47.468Z,100827.44
2023-08-12T10:20:16.725Z,100824.38
2023-08-12T10:22:46.408Z,100829.50
2023-08-12T10:25:16.699Z,100818.97
2023-08-12T10:27:46.263Z,100815.53
2023-08-12T10:30:15.449Z,100823.22
2023-08-12T10:32:43.617Z,100812.03
2023-08-12T10:35:11.849Z,100811.78
2023-08-12T10:37:39.885Z,100801.94
2023-08-12T10:40:21.574Z,100803.34
2023-08-12T10:42:52.503Z,100795.69
2023-08-12T10:45:21.022Z,100795.88
2023-08-12T10:47:54.232Z,100794.25
2023-08-12T10:50:27.172Z,100798.69
2023-08-12T10:52:55.967Z,100796.47
2023-08-12T10:55:25.432Z,100792.53
2023-08-12T10:57:57.315Z,100794.97
2023-08-12T11:00:26.901Z,100783.91
2023-08-12T11:02:57.492Z,100785.81
2023-08-12T11:05:26.289Z,100792.72
2023-08-12T11:07:59.723Z,100780.19
2023-08-12T11:10:30.605Z,100784.91
2023-08-12T11:13:02.014Z,100782.47
2023-08-12T11:15:35.115Z,100786.88
2023-08-12T11:18:05.638Z,100765.97
2023-08-12T11:20:34.358Z,100773.00
2023-08-12T11:23:03.401Z,100766.69
2023-08-12T11:25:32.292Z,100767.97
2023-08-12T11:28:01.985Z,100774.84
2023-08-12T11:30:32.688Z,100762.09
2023-08-12T11:33:02.380Z,100764.88
2023-08-12T11:35:31.037Z,100758.59
2023-08-12T11:38:00.589Z,100747.94
2023-08-12T11:40:30.208Z,100745.81
2023-08-12T11:42:58.356Z,100754.78
2023-08-12T11:45:31.015Z,100748.28
2023-08-12T11:47:59.350Z,100754.28
2023-08-12T11:50:28.998Z,100752.78
2023-08-12T11:52:58.240Z,100754.78
2023-08-12T11:55:27.742Z,100749.53
2023-08-12T11:57:55.760Z,100746.66
2023-08-12T12:00:24.900Z,100748.97
2023-08-12T12:02:56.700Z,100739.72
2023-08-12T12:05:26.073Z,100740.63
2023-08-12T12:07:54.697Z,100734.59
2023-08-12T12:10:30.068Z,100736.56
2023-08-12T12:13:01.870Z,100734.16
2023-08-12T12:15:29.822Z,100722.66
2023-08-12T12:17:59.263Z,100735.16
2023-08-12T12:20:28.410Z,100728.34
2023-08-12T12:22:56.945Z,100724.91
2023-08-12T12:25:24.966Z,100720.31
2023-08-12T12:27:55.283Z,100720.28
2023-08-12T12:30:23.534Z,100714.16
2023-08-12T12:32:52.645Z,100711.59
2023-08-12T12:35:22.168Z,100709.03
2023-08-12T12:37:50.179Z,100701.78
2023-08-12T12:40:18.384Z,100701.56
2023-08-12T12:42:46.309Z,100705.34
2023-08-12T12:45:14.417Z,100700.78
2023-08-12T12:47:42.413Z,100699.00
2023-08-12T12:50:10.620Z,100688.34
2023-08-12T12:52:40.916Z,100693.28
2023-08-12T12:55:11.167Z,100686.16
2023-08-12T12:57:39.146Z,100691.53
2023-08-12T13:00:12.778Z,100689.81
2023-08-12T13:02:41.891Z,100688.81
2023-08-12T13:05:10.491Z,100680.41
2023-08-12T13:07:39.820Z,100682.97
2023-08-12T13:10:09.574Z,100681.03
2023-08-12T13:12:37.681Z,100687.31
2023-08-12T13:15:06.225Z,100678.09
2023-08-12T13:17:34.332Z,100675.38
2023-08-12T13:20:02.288Z,100667.63
2023-08-12T13:22:30.305Z,100672.44
2023-08-12T13:25:00.333Z,100668.56
2023-08-12T13:27:29.003Z,100667.09
2023-08-12T13:29:56.926Z,100666.31
2023-08-12T13:32:25.200Z,100665.94
2023-08-12T13:34:53.232Z,100664.47
2023-08-12T13:37:21.416Z,100662.44
2023-08-12T13:39:49.379Z,100655.06
2023-08-12T13:42:18.669Z,100659.56
2023-08-12T13:44:46.796Z,100661.34
2023-08-12T13:47:15.096Z,100658.22
2023-08-12T13:49:43.087Z,100651.06
2023-08-12T13:52:11.398Z,100647.09
2023-08-12T13:54:40.726Z,100650.50
2023-08-12T13:57:08.729Z,100649.84
2023-08-12T13:59:38.174Z,100646.97
2023-08-12T14:02:06.377Z,100647.53
2023-08-12T14:04:34.715Z,100640.44
2023-08-12T14:07:02.865Z,100640.38
2023-08-12T14:09:30.839Z,100638.13
2023-08-12T14:11:59.077Z,100640.41
2023-08-12T14:14:28.719Z,100637.84
2023-08-12T14:16:58.384Z,100634.78
2023-08-12T14:19:26.467Z,100623.53
2023-08-12T14:21:54.445Z,100631.84
2023-08-12T14:24:22.657Z,100632.56
2023-08-12T14:26:50.683Z,100625.16
2023-08-12T14:29:18.705Z,100628.94
2023-08-12T14:31:46.730Z,100626.53
2023-08-12T14:34:16.249Z,100621.69
2023-08-12T14:36:44.334Z,100614.53
2023-08-12T14:39:12.398Z,100618.78
2023-08-12T14:41:40.419Z,100617.75
2023-08-12T14:44:08.451Z,100615.28
2023-08-12T14:46:36.504Z,100617.28
2023-08-12T14:49:05.392Z,100609.53
2023-08-12T14:51:34.874Z,100608.84
2023-08-12T14:54:03.125Z,100608.38
2023-08-12T14:56:31.155Z,100608.63
2023-08-12T14:58:59.406Z,100604.63
2023-08-12T15:01:29.068Z,100602.75
2023-08-12T15:03:57.715Z,100593.44
2023-08-12T15:06:25.938Z,100587.72
2023-08-12T15:08:56.522Z,100589.31
2023-08-12T15:11:25.071Z,100585.69
2023-08-12T15:13:53.136Z,100585.81
2023-08-12T15:16:21.257Z,100582.25
2023-08-12T15:18:49.179Z,100575.44
2023-08-12T15:21:17.940Z,100575.59
2023-08-12T15:23:45.859Z,100568.88
2023-08-12T15:26:19.141Z,100572.38
2023-08-12T15:28:47.495Z,100568.41
2023-08-12T15:31:16.026Z,100567.31
2023-08-12T15:33:44.055Z,100567.00
2023-08-12T15:36:11.961Z,100563.44
2023-08-12T15:38:42.543Z,100567.59
2023-08-12T15:41:16.598Z,100553.88
2023-08-12T15:43:45.705Z,100563.28
2023-08-12T15:46:14.242Z,100558.41
2023-08-12T15:48:43.899Z,100555.53
2023-08-12T15:51:12.024Z,100558.19
2023-08-12T15:53:40.054Z,100565.88
2023-08-12T15:56:08.072Z,100561.91
2023-08-12T15:58:37.455Z,100560.47
2023-08-12T16:01:05.569Z,100552.66
2023-08-12T16:03:33.546Z,100558.56
2023-08-12T16:06:01.746Z,100560.59
2023-08-12T16:08:29.832Z,100556.81
2023-08-12T16:10:57.823Z,100552.97
2023-08-12T16:13:26.083Z,100554.41
2023-08-12T16:15:55.986Z,100558.41
2023-08-12T16:18:24.024Z,100554.13
2023-08-12T16:20:52.004Z,100553.44
2023-08-12T16:23:20.100Z,100554.56
2023-08-12T16:25:48.339Z,100552.44
2023-08-12T16:28:16.276Z,100555.00
2023-08-12T16:30:44.197Z,100557.41
2023-08-12T16:33:13.780Z,100553.84
2023-08-12T16:35:41.857Z,100555.00
2023-08-12T16:38:09.901Z,100553.56
2023-08-12T16:40:38.480Z,100548.13
2023-08-12T16:43:06.492Z,100545.88
2023-08-12T16:45:34.764Z,100543.59
2023-08-12T16:48:03.364Z,100550.16
2023-08-12T16:50:33.228Z,100550.47
2023-08-12T16:53:02.781Z,100552.47
2023-08-12T16:55:32.146Z,100557.28
2023-08-12T16:58:00.345Z,100547.91
2023-08-12T17:00:28.363Z,100549.91
2023-08-12T17:02:56.366Z,100561.75
2023-08-12T17:05:24.406Z,100553.03
2023-08-12T17:07:53.856Z,100562.59
2023-08-12T17:10:21.943Z,100562.03
2023-08-12T17:12:50.015Z,100559.03
2023-08-12T17:15:17.980Z,100563.19
2023-08-12T17:17:45.926Z,100565.28
2023-08-12T17:20:14.053Z,100570.28
2023-08-12T17:22:41.986Z,100573.41
2023-08-12T17:25:12.024Z,100571.09
2023-08-12T17:27:40.060Z,100570.69
2023-08-12T17:30:09.187Z,100566.53
2023-08-12T17:32:37.206Z,100571.50
2023-08-12T17:35:05.637Z,100570.09
2023-08-12T17:37:36.903Z,100567.78
2023-08-12T17:40:05.882Z,100565.53
2023-08-12T17:42:35.352Z,100565.81
2023-08-12T17:45:03.417Z,100574.31
2023-08-12T17:47:31.387Z,100566.63
2023-08-12T17:50:00.854Z,100574.31
2023-08-12T17:52:28.816Z,100569.44
2023-08-12T17:54:57.041Z,100579.13
2023-08-12T17:57:25.106Z,100571.50
2023-08-12T17:59:54.771Z,100574.78
2023-08-12T18:02:22.819Z,100580.69
2023-08-12T18:04:51.010Z,100583.09
2023-08-12T18:07:18.999Z,100589.03
2023-08-12T18:09:47.037Z,100591.31
2023-08-12T18:12:15.238Z,100588.41
2023-08-12T18:14:43.478Z,100594.34
2023-08-12T18:17:12.815Z,100589.94
2023-08-12T18:19:40.810Z,100591.78
2023-08-12T18:22:08.799Z,100596.00
2023-08-12T18:24:36.931Z,100598.84
2023-08-12T18:27:05.684Z,100599.09
2023-08-12T18:29:33.882Z,100604.66
2023-08-12T18:32:02.914Z,100604.88
2023-08-12T18:34:32.509Z,100608.84
2023-08-12T18:37:00.655Z,100614.00
2023-08-12T18:39:28.819Z,100616.03
2023-08-12T18:41:56.801Z,100618.56
2023-08-12T18:44:25.141Z,100616.22
2023-08-12T18:46:53.902Z,100616.63
2023-08-12T18:49:22.404Z,100621.56
2023-08-12T18:51:52.608Z,100622.78
2023-08-12T18:54:21.359Z,100623.19
2023-08-12T18:56:49.921Z,100626.25
2023-08-12T18:59:18.398Z,100622.09
2023-08-12T19:01:46.746Z,100627.28
2023-08-12T19:04:14.716Z,100626.66
2023-08-12T19:06:42.713Z,100632.41
2023-08-12T19:09:12.274Z,100626.06
2023-08-12T19:11:41.544Z,100626.56
2023-08-12T19:14:09.678Z,100633.69
2023-08-12T19:16:38.100Z,100641.66
2023-08-12T19:19:06.196Z,100639.94
2023-08-12T19:21:34.332Z,100638.69
2023-08-12T19:24:02.553Z,100643.03
2023-08-12T19:26:32.131Z,100638.09
2023-08-12T19:29:01.712Z,100645.34
2023-08-12T19:31:30.716Z,100641.53
2023-08-12T19:33:59.521Z,100646.44
2023-08-12T19:36:29.052Z,100649.09
2023-08-12T19:38:58.644Z,100646.63
2023-08-12T19:41:30.332Z,100653.88
2023-08-12T19:44:02.032Z,100654.84
2023-08-12T19:46:32.337Z,100652.28
2023-08-12T19:49:01.558Z,100652.41
2023-08-12T19:51:30.974Z,100651.63
2023-08-12T19:53:59.573Z,100652.75
2023-08-12T19:56:29.342Z,100654.56
2023-08-12T19:58:57.384Z,100654.94
2023-08-12T20:01:29.098Z,100657.13
2023-08-12T20:03:57.645Z,100657.75
2023-08-12T20:06:27.519Z,100660.56
2023-08-12T20:08:58.366Z,100653.78
2023-08-12T20:11:26.988Z,100660.13
2023-08-12T20:13:55.682Z,100667.09
2023-08-12T20:16:24.313Z,100661.16
2023-08-12T20:18:55.452Z,100666.06
2023-08-12T20:21:24.489Z,100675.97
2023-08-12T20:23:53.410Z,100669.31
2023-08-12T20:26:23.555Z,100675.88
2023-08-12T20:28:52.984Z,100675.75
2023-08-12T20:31:23.905Z,100679.53
2023-08-12T20:33:53.915Z,100674.78
2023-08-12T20:36:23.358Z,100675.88
2023-08-12T20:38:52.076Z,100673.75
2023-08-12T20:41:21.360Z,100672.03
2023-08-12T20:43:49.832Z,100674.34
2023-08-12T20:46:19.387Z,100671.84
2023-08-12T20:48:48.443Z,100675.63
2023-08-12T20:51:18.729Z,100676.00
2023-08-12T20:53:47.760Z,100679.13
2023-08-12T20:56:16.851Z,100684.28
2023-08-12T20:58:45.321Z,100683.31
2023-08-12T21:01:13.620Z,100683.31
2023-08-12T21:03:41.846Z,100686.66
2023-08-12T21:06:10.975Z,100698.16
2023-08-12T21:08:40.259Z,100695.81
2023-08-12T21:11:08.220Z,100689.78
2023-08-12T21:13:36.205Z,100680.47
2023-08-12T21:16:05.437Z,100680.16
2023-08-12T21:18:33.506Z,100679.31
2023-08-12T21:21:01.577Z,100668.78
2023-08-12T21:23:29.513Z,100678.16
2023-08-12T21:25:58.913Z,100676.88
2023-08-12T21:30:54.599Z,100673.63
2023-08-12T21:33:22.679Z,100677.97
2023-08-12T21:35:51.203Z,100672.88
2023-08-12T21:38:19.222Z,100673.34
2023-08-12T21:40:47.226Z,100675.69
2023-08-12T21:43:16.575Z,100674.81
2023-08-12T21:45:44.624Z,100673.09
2023-08-12T21:48:12.743Z,100670.53
2023-08-12T21:50:40.694Z,100677.00
2023-08-12T21:53:08.641Z,100665.38
2023-08-12T21:55:36.618Z,100670.31
2023-08-12T21:58:04.809Z,100666.03
2023-08-12T22:00:34.112Z,100669.56
2023-08-12T22:03:02.497Z,100657.13
2023-08-12T22:05:31.646Z,100663.97
2023-08-12T22:08:00.750Z,100664.84
2023-08-12T22:10:28.663Z,100659.47
2023-08-12T22:12:58.035Z,100664.84
2023-08-12T22:15:26.455Z,100659.47
2023-08-12T22:17:56.557Z,100656.47
2023-08-12T22:20:24.768Z,100657.63
2023-08-12T22:22:52.709Z,100654.09
2023-08-12T22:25:20.709Z,100654.53
2023-08-12T22:27:48.682Z,100661.38
2023-08-12T22:30:16.709Z,100658.88
2023-08-12T22:32:45.156Z,100657.84
2023-08-12T22:35:14.601Z,100657.28
2023-08-12T22:37:42.891Z,100651.91
2023-08-12T22:40:11.120Z,100645.91
2023-08-12T22:42:39.860Z,100652.31
2023-08-12T22:45:09.590Z,100655.31
2023-08-12T22:47:37.604Z,100654.97
2023-08-12T22:50:07.413Z,100650.56
2023-08-12T22:52:36.826Z,100651.44
2023-08-12T22:55:05.639Z,100650.47
2023-08-12T22:57:33.665Z,100648.97
2023-08-12T23:00:01.703Z,100653.97
2023-08-12T23:02:29.869Z,100650.66
2023-08-12T23:04:59.005Z,100654.19
2023-08-12T23:07:27.203Z,100648.72
2023-08-12T23:09:59.822Z,100645.19
2023-08-12T23:12:28.464Z,100649.03
2023-08-12T23:14:56.730Z,100651.69
2023-08-12T23:17:24.746Z,100644.03
2023-08-12T23:19:52.817Z,100644.81
2023-08-12T23:22:21.008Z,100639.53
2023-08-12T23:24:49.004Z,100638.28
2023-08-12T23:27:18.376Z,100633.72
2023-08-12T23:29:46.426Z,100634.13
2023-08-12T23:32:14.803Z,100637.13
2023-08-12T23:34:43.030Z,100642.03
2023-08-12T23:37:11.102Z,100638.63
2023-08-12T23:39:39.091Z,100632.84
2023-08-12T23:42:08.060Z,100640.38
2023-08-12T23:44:37.386Z,100638.56
2023-08-12T23:47:05.615Z,100636.09
2023-08-12T23:49:34.374Z,100642.41
2023-08-12T23:52:02.294Z,100640.69
2023-08-12T23:54:30.191Z,100644.34
2023-08-12T23:56:59.687Z,100647.50
2023-08-12T23:59:27.705Z,100644.16
